Afton, WI

3:31 AM CDT on October 24, 2014 (GMT -0500)
Rock County | Change Station
CLOSE
Current Station
Airport
Location: Janesville,
Elevation: 807 ft
Nearby Weather Stations

Elev 807 ft 42.62 °N, 89.04 °W | Updated 16 minutes ago

Overcast
Overcast
50 °F
Feels Like 50 °F
N
0
Wind Variable Wind from North

Today
High -- | Low -- °F
--% Chance of Precip.
Yesterday
High -- | Low -- °F
Precip. -- in
7:20 AM 6:00 PM
New Moon, 0% visible
Pressure 30.03 in
Visibility 4.0 miles
Clouds Overcast 600 ft
Dew Point 48 °F
Humidity 94%
Rainfall 0.00 in
Snow Depth Not available.
UV 0 out of 12
Pollen .40 out of 12
Air Quality Not available.
Flu Activity Sporadic
METAR KJVL 240815Z AUTO 00000KT 4SM BR OVC006 10/09 A3003 RMK AO2

More Conditions Fewer Conditions

Pressure 30.03 in
Visibility 4.0 miles
Clouds Overcast 600 ft
Dew Point 48 °F
Humidity 94%
Rainfall 0.00 in
Snow Depth Not available.
UV 0 out of 12
Pollen .40 out of 12
Air Quality Not available.
Flu Activity Sporadic
METAR KJVL 240815Z AUTO 00000KT 4SM BR OVC006 10/09 A3003 RMK AO2

More Conditions Fewer Conditions

10-Day Weather Forecast

Almanac

Astronomy

Oct. 24, 2014 Rise Set
Actual Time 7:20 AM CDT 6:00 PM CDT
Civil Twilight 6:51 AM CDT 6:28 PM CDT
Nautical Twilight 6:18 AM CDT 7:01 PM CDT
Astronomical Twilight 5:45 AM CDT 7:34 PM CDT
Moon 7:59 AM CDT 6:39 PM CDT
Length of Visible Light 11h 37m
Length of Day
10h 39m
Tomorrow will be 2m 41s shorter.
New Moon, 0% of the Moon is Illuminated
Today
New Moon
Oct 30
First Quarter
Nov 6
Full
Nov 14
Last Quarter
Nov 22
New

Today's Extremes

State Highs State Lows

Community

WunderPhotos

Upload Photos

1,764,511 photos uploaded!

WunderBlogs® & News

Nearby

Snow Depth

Station Depth Elevation
No new snow has been reported.

Earthquake Activity

City Distance Mag. Time & Date
No recent earthquake activity has been reported nearby.
Minimum magnitude displayed is 2.5.

Coastal Water Temperatures

Place Temperature
No Stations Reporting

Nearby Weather Stations